createdAt,value
2019-02-25T00:01:00.013Z,99.90
2019-02-25T00:03:27.657Z,99.90
2019-02-25T00:05:55.309Z,99.90
2019-02-25T00:08:23.007Z,99.90
2019-02-25T00:10:50.728Z,99.90
2019-02-25T00:13:18.454Z,99.90
2019-02-25T00:15:46.087Z,99.90
2019-02-25T00:18:13.781Z,99.90
2019-02-25T00:20:41.451Z,99.90
2019-02-25T00:23:09.168Z,99.90
2019-02-25T00:25:36.817Z,99.90
2019-02-25T00:28:04.539Z,99.90
2019-02-25T00:30:32.181Z,99.90
2019-02-25T00:32:59.854Z,99.90
2019-02-25T00:35:27.545Z,99.90
2019-02-25T00:37:55.279Z,99.90
2019-02-25T00:40:22.974Z,99.90
2019-02-25T00:42:50.704Z,99.90
2019-02-25T00:45:18.416Z,99.90
2019-02-25T00:47:46.123Z,99.90
2019-02-25T00:50:13.805Z,99.90
2019-02-25T00:52:41.463Z,99.90
2019-02-25T00:55:10.346Z,99.90
2019-02-25T00:57:38.017Z,99.90
2019-02-25T01:00:08.881Z,99.90
2019-02-25T01:02:36.607Z,99.90
2019-02-25T01:05:04.893Z,99.90
2019-02-25T01:07:32.641Z,99.90
2019-02-25T01:10:00.374Z,99.90
2019-02-25T01:12:28.041Z,99.90
2019-02-25T01:14:55.733Z,99.90
2019-02-25T01:17:23.456Z,99.90
2019-02-25T01:19:51.182Z,99.90
2019-02-25T01:22:21.177Z,99.90
2019-02-25T01:24:48.884Z,99.90
2019-02-25T01:27:16.536Z,99.90
2019-02-25T01:29:44.237Z,99.90
2019-02-25T01:32:11.929Z,99.90
2019-02-25T01:34:39.616Z,99.90
2019-02-25T01:37:07.353Z,99.90
2019-02-25T01:39:35.038Z,99.90
2019-02-25T01:42:02.673Z,99.90
2019-02-25T01:44:30.399Z,99.90
2019-02-25T01:46:58.071Z,99.90
2019-02-25T01:49:25.760Z,99.90
2019-02-25T01:51:53.414Z,99.90
2019-02-25T01:54:21.188Z,99.90
2019-02-25T01:56:48.830Z,99.90
2019-02-25T01:59:16.461Z,99.90
2019-02-25T02:01:44.171Z,99.90
2019-02-25T02:04:11.956Z,99.90
2019-02-25T02:06:39.620Z,99.90
2019-02-25T02:09:07.874Z,99.90
2019-02-25T02:11:35.515Z,99.90
2019-02-25T02:14:03.403Z,99.90
2019-02-25T02:16:31.127Z,99.90
2019-02-25T02:18:58.760Z,99.90
2019-02-25T02:21:26.404Z,99.90
2019-02-25T02:23:54.077Z,99.90
2019-02-25T02:26:21.767Z,99.90
2019-02-25T02:28:49.438Z,99.90
2019-02-25T02:31:17.150Z,99.90
2019-02-25T02:33:44.767Z,99.90
2019-02-25T02:36:12.365Z,99.90
2019-02-25T02:38:40.024Z,99.90
2019-02-25T02:41:07.679Z,99.90
2019-02-25T02:43:35.367Z,99.90
2019-02-25T02:46:23.536Z,99.90
2019-02-25T02:48:55.035Z,99.90
2019-02-25T02:51:22.670Z,99.90
2019-02-25T02:53:50.354Z,99.90
2019-02-25T02:56:18.027Z,99.90
2019-02-25T02:58:45.677Z,99.90
2019-02-25T03:01:13.493Z,99.90
2019-02-25T03:03:41.134Z,99.90
2019-02-25T03:06:08.779Z,99.90
2019-02-25T03:08:36.440Z,99.90
2019-02-25T03:11:04.130Z,99.90
2019-02-25T03:13:31.787Z,99.90
2019-02-25T03:15:59.439Z,99.90
2019-02-25T03:18:27.108Z,99.90
2019-02-25T03:20:54.912Z,99.90
2019-02-25T03:23:22.564Z,99.90
2019-02-25T03:25:50.223Z,99.90
2019-02-25T03:28:17.867Z,99.90
2019-02-25T03:30:45.536Z,99.90
2019-02-25T03:33:13.187Z,99.90
2019-02-25T03:35:40.952Z,99.90
2019-02-25T03:38:08.594Z,99.90
2019-02-25T03:40:36.227Z,99.90
2019-02-25T03:43:03.879Z,99.90
2019-02-25T03:45:31.499Z,99.90
2019-02-25T03:47:59.188Z,99.90
2019-02-25T03:50:26.826Z,99.90
2019-02-25T03:52:54.495Z,99.90
2019-02-25T03:55:22.241Z,99.90
2019-02-25T03:57:49.894Z,99.90
2019-02-25T04:00:19.624Z,99.90
2019-02-25T04:02:47.340Z,99.90
2019-02-25T04:05:15.012Z,99.90
2019-02-25T04:07:42.630Z,99.90
2019-02-25T04:10:10.602Z,99.90
2019-02-25T04:12:38.264Z,99.90
2019-02-25T04:15:08.088Z,99.90
2019-02-25T04:17:35.750Z,99.90
2019-02-25T04:20:03.913Z,99.90
2019-02-25T04:22:31.605Z,99.90
2019-02-25T04:24:59.439Z,99.90
2019-02-25T04:27:27.097Z,99.90
2019-02-25T04:29:54.716Z,99.90
2019-02-25T04:32:22.386Z,99.90
2019-02-25T04:34:50.029Z,99.90
2019-02-25T04:37:17.703Z,99.90
2019-02-25T04:39:45.316Z,99.90
2019-02-25T04:42:12.980Z,99.90
2019-02-25T04:44:40.616Z,99.90
2019-02-25T04:47:08.311Z,99.90
2019-02-25T04:49:36.013Z,99.90
2019-02-25T04:52:03.612Z,99.90
2019-02-25T04:54:31.268Z,99.90
2019-02-25T04:56:58.885Z,99.90
2019-02-25T04:59:26.572Z,99.90
2019-02-25T05:01:54.189Z,99.90
2019-02-25T05:04:22.194Z,99.90
2019-02-25T05:06:49.862Z,99.90
2019-02-25T05:09:17.511Z,99.90
2019-02-25T05:11:45.117Z,99.90
2019-02-25T05:14:12.754Z,99.90
2019-02-25T05:16:40.457Z,99.90
2019-02-25T05:19:08.110Z,99.90
2019-02-25T05:21:35.751Z,99.90
2019-02-25T05:24:03.457Z,99.90
2019-02-25T05:26:31.115Z,99.90
2019-02-25T05:28:58.764Z,99.90
2019-02-25T05:31:26.448Z,99.90
2019-02-25T05:33:54.102Z,99.90
2019-02-25T05:36:21.822Z,99.90
2019-02-25T05:38:49.472Z,99.90
2019-02-25T05:41:17.090Z,99.90
2019-02-25T05:43:44.756Z,99.90
2019-02-25T05:46:12.400Z,99.90
2019-02-25T05:48:40.064Z,99.90
2019-02-25T05:51:07.704Z,99.90
2019-02-25T05:53:35.362Z,99.90
2019-02-25T05:56:03.028Z,99.90
2019-02-25T05:58:30.792Z,99.90
2019-02-25T06:00:58.472Z,99.90
2019-02-25T06:03:26.129Z,99.90
2019-02-25T06:05:53.826Z,99.90
2019-02-25T06:08:21.483Z,99.90
2019-02-25T06:10:49.139Z,99.90
2019-02-25T06:13:16.846Z,99.90
2019-02-25T06:15:44.515Z,99.90
2019-02-25T06:18:12.159Z,99.90
2019-02-25T06:20:39.841Z,99.90
2019-02-25T06:23:07.564Z,99.90
2019-02-25T06:25:35.249Z,99.90
2019-02-25T06:28:02.882Z,99.90
2019-02-25T06:30:30.570Z,99.90
2019-02-25T06:32:58.203Z,99.90
2019-02-25T06:35:25.833Z,99.90
2019-02-25T06:37:53.475Z,99.90
2019-02-25T06:40:21.158Z,99.90
2019-02-25T06:42:48.817Z,99.90
2019-02-25T06:45:17.279Z,99.90
2019-02-25T06:47:44.999Z,99.90
2019-02-25T06:50:12.782Z,99.90
2019-02-25T06:52:40.487Z,99.90
2019-02-25T06:55:09.851Z,99.90
2019-02-25T06:57:37.459Z,99.90
2019-02-25T07:00:07.413Z,99.90
2019-02-25T07:02:35.056Z,99.90
2019-02-25T07:05:25.077Z,99.90
2019-02-25T07:07:58.203Z,99.90
2019-02-25T07:10:36.796Z,99.90
2019-02-25T07:13:12.710Z,99.90
2019-02-25T07:15:47.043Z,99.90
2019-02-25T07:18:34.142Z,99.90
2019-02-25T07:21:16.040Z,99.90
2019-02-25T07:23:59.712Z,99.90
2019-02-25T07:26:43.226Z,99.90
2019-02-25T07:29:30.335Z,99.90
2019-02-25T07:32:30.186Z,99.90
2019-02-25T07:35:35.483Z,99.90
2019-02-25T07:38:22.623Z,99.90
2019-02-25T07:41:24.318Z,99.90
2019-02-25T07:44:20.213Z,99.90
2019-02-25T07:47:10.299Z,99.90
2019-02-25T07:49:44.216Z,99.90
2019-02-25T07:52:46.367Z,99.90
2019-02-25T07:55:28.859Z,99.90
2019-02-25T07:58:03.583Z,99.90
2019-02-25T08:00:50.025Z,99.90
2019-02-25T08:03:37.147Z,99.90
2019-02-25T08:06:22.564Z,99.90
2019-02-25T08:09:18.657Z,99.90
2019-02-25T08:12:01.763Z,99.90
2019-02-25T08:14:42.519Z,99.90
2019-02-25T08:17:20.374Z,99.90
2019-02-25T08:20:22.231Z,99.90
2019-02-25T08:23:15.340Z,99.90
2019-02-25T08:26:02.512Z,99.90
2019-02-25T08:28:52.504Z,99.90
2019-02-25T08:31:30.862Z,99.90
2019-02-25T08:34:18.681Z,99.90
2019-02-25T08:37:39.180Z,99.90
2019-02-25T08:40:28.320Z,99.90
2019-02-25T08:43:17.230Z,99.90
2019-02-25T08:46:13.036Z,99.90
2019-02-25T08:48:45.959Z,99.90
2019-02-25T08:51:13.742Z,99.90
2019-02-25T08:53:41.526Z,99.90
2019-02-25T08:56:09.133Z,99.90
2019-02-25T08:58:36.840Z,99.90
2019-02-25T09:01:04.663Z,99.90
2019-02-25T09:03:32.363Z,99.90
2019-02-25T09:06:00.022Z,99.90
2019-02-25T09:08:27.702Z,99.90
2019-02-25T09:10:55.327Z,99.90
2019-02-25T09:13:23.900Z,99.90
2019-02-25T09:15:51.617Z,99.90
2019-02-25T09:18:19.261Z,99.90
2019-02-25T09:20:46.913Z,99.90
2019-02-25T09:23:14.568Z,99.90
2019-02-25T09:25:42.226Z,99.90
2019-02-25T09:28:09.846Z,99.90
2019-02-25T09:30:37.496Z,99.90
2019-02-25T09:33:05.168Z,99.90
2019-02-25T09:35:32.828Z,99.90
2019-02-25T09:38:00.519Z,99.90
2019-02-25T09:40:28.297Z,99.90
2019-02-25T09:42:55.948Z,99.90
2019-02-25T09:45:23.610Z,99.90
2019-02-25T09:47:51.272Z,99.90
2019-02-25T09:50:18.921Z,99.90
2019-02-25T09:52:46.577Z,99.90
2019-02-25T09:55:14.313Z,99.90
2019-02-25T09:57:42.053Z,99.90
2019-02-25T10:00:13.107Z,99.90
2019-02-25T10:02:40.928Z,99.90
2019-02-25T10:05:08.581Z,99.90
2019-02-25T10:07:36.183Z,99.90
2019-02-25T10:10:04.707Z,99.90
2019-02-25T10:12:32.372Z,99.90
2019-02-25T10:14:59.983Z,99.90
2019-02-25T10:17:27.663Z,99.90
2019-02-25T10:19:55.287Z,99.90
2019-02-25T10:22:23.002Z,99.90
2019-02-25T10:24:50.616Z,99.90
2019-02-25T10:27:18.308Z,99.90
2019-02-25T10:29:45.915Z,99.90
2019-02-25T10:32:13.543Z,99.90
2019-02-25T10:34:41.213Z,99.90
2019-02-25T10:37:09.355Z,99.90
2019-02-25T10:39:38.436Z,99.90
2019-02-25T10:42:06.087Z,99.90
2019-02-25T10:44:34.434Z,99.90
2019-02-25T10:47:03.260Z,99.90
2019-02-25T10:49:31.322Z,99.90
2019-02-25T10:52:00.351Z,99.90
2019-02-25T10:54:28.028Z,99.90
2019-02-25T10:57:01.757Z,99.90
2019-02-25T10:59:29.929Z,99.90
2019-02-25T11:01:58.990Z,99.90
2019-02-25T11:04:26.624Z,99.90
2019-02-25T11:06:54.272Z,99.90
2019-02-25T11:09:48.355Z,99.90
2019-02-25T11:12:17.011Z,99.90
2019-02-25T11:14:44.690Z,98.20
2019-02-25T11:17:13.885Z,97.20
2019-02-25T11:19:41.848Z,95.70
2019-02-25T11:22:10.408Z,94.40
2019-02-25T11:24:39.118Z,92.80
2019-02-25T11:27:07.359Z,92.80
2019-02-25T11:29:35.144Z,90.70
2019-02-25T11:32:02.748Z,89.60
2019-02-25T11:34:31.634Z,89.40
2019-02-25T11:36:59.960Z,87.30
2019-02-25T11:39:29.993Z,86.30
2019-02-25T11:41:57.052Z,85.70
2019-02-25T11:44:26.156Z,85.70
2019-02-25T11:46:54.185Z,83.30
2019-02-25T11:49:21.885Z,80.40
2019-02-25T11:51:49.480Z,80.90
2019-02-25T11:54:17.139Z,77.10
2019-02-25T11:56:44.768Z,77.50
2019-02-25T11:59:12.416Z,77.00
2019-02-25T12:01:40.031Z,76.10
2019-02-25T12:04:07.710Z,76.40
2019-02-25T12:06:35.340Z,76.60
2019-02-25T12:09:04.087Z,75.80
2019-02-25T12:11:31.751Z,74.20
2019-02-25T12:13:59.440Z,74.20
2019-02-25T12:16:27.079Z,74.80
2019-02-25T12:18:54.797Z,73.40
2019-02-25T12:21:22.483Z,73.50
2019-02-25T12:23:50.104Z,74.20
2019-02-25T12:26:17.747Z,75.40
2019-02-25T12:28:45.376Z,75.10
2019-02-25T12:31:13.065Z,74.50
2019-02-25T12:33:40.708Z,74.70
2019-02-25T12:36:08.444Z,74.70
2019-02-25T12:38:36.035Z,75.00
2019-02-25T12:41:03.753Z,74.00
2019-02-25T12:43:31.372Z,73.50
2019-02-25T12:45:59.014Z,74.40
2019-02-25T12:48:26.697Z,71.80
2019-02-25T12:50:54.481Z,71.70
2019-02-25T12:53:22.140Z,70.70
2019-02-25T12:55:49.796Z,69.90
2019-02-25T12:58:17.463Z,71.80
2019-02-25T13:00:45.069Z,71.30
2019-02-25T13:03:12.782Z,71.20
2019-02-25T13:05:40.423Z,72.30
2019-02-25T13:08:08.117Z,71.90
2019-02-25T13:10:35.874Z,71.20
2019-02-25T13:13:03.510Z,69.40
2019-02-25T13:15:31.185Z,69.20
2019-02-25T13:18:00.199Z,69.40
2019-02-25T13:20:27.998Z,68.90
2019-02-25T13:22:55.687Z,68.80
2019-02-25T13:25:23.428Z,69.00
2019-02-25T13:27:51.925Z,69.70
2019-02-25T13:30:20.508Z,67.70
2019-02-25T13:32:48.106Z,69.70
2019-02-25T13:35:15.758Z,69.60
2019-02-25T13:37:44.212Z,69.80
2019-02-25T13:40:12.023Z,70.10
2019-02-25T13:42:39.708Z,69.90
2019-02-25T13:45:08.350Z,70.50
2019-02-25T13:47:36.058Z,70.10
2019-02-25T13:50:04.199Z,71.30
2019-02-25T13:52:31.858Z,72.10
2019-02-25T13:54:59.481Z,70.70
2019-02-25T13:57:27.130Z,70.40
2019-02-25T13:59:54.795Z,70.30
2019-02-25T14:02:22.428Z,70.20
2019-02-25T14:04:50.146Z,69.50
2019-02-25T14:07:18.026Z,68.90
2019-02-25T14:09:45.652Z,68.50
2019-02-25T14:12:15.032Z,68.30
2019-02-25T14:14:42.794Z,68.20
2019-02-25T14:17:10.408Z,68.00
2019-02-25T14:19:38.168Z,67.90
2019-02-25T14:22:06.047Z,65.90
2019-02-25T14:24:33.683Z,65.20
2019-02-25T14:27:01.431Z,64.40
2019-02-25T14:29:29.138Z,64.60
2019-02-25T14:31:56.896Z,64.30
2019-02-25T14:34:24.687Z,64.70
2019-02-25T14:36:54.401Z,67.20
2019-02-25T14:39:27.707Z,66.80
2019-02-25T14:41:54.855Z,67.50
2019-02-25T14:44:22.295Z,67.80
2019-02-25T14:46:49.982Z,67.90
2019-02-25T14:49:17.725Z,68.10
2019-02-25T14:51:45.428Z,68.00
2019-02-25T14:54:13.343Z,68.40
2019-02-25T14:56:41.011Z,68.30
2019-02-25T14:59:13.276Z,68.60
2019-02-25T15:01:39.916Z,68.70
2019-02-25T15:04:07.554Z,69.70
2019-02-25T15:06:36.527Z,69.50
2019-02-25T15:09:09.814Z,68.70
2019-02-25T15:11:35.984Z,69.30
2019-02-25T15:14:03.764Z,70.00
2019-02-25T15:16:31.371Z,70.70
2019-02-25T15:19:00.605Z,69.80
2019-02-25T15:21:28.716Z,70.60
2019-02-25T15:24:00.072Z,70.40
2019-02-25T15:26:27.701Z,70.00
2019-02-25T15:28:56.649Z,70.80
2019-02-25T15:31:25.035Z,70.80
2019-02-25T15:33:52.689Z,70.20
2019-02-25T15:36:20.421Z,72.40
2019-02-25T15:38:49.812Z,69.10
2019-02-25T15:41:17.431Z,69.30
2019-02-25T15:43:45.109Z,68.80
2019-02-25T15:46:16.367Z,68.90
2019-02-25T15:48:43.525Z,68.30
2019-02-25T15:51:11.353Z,67.80
2019-02-25T15:53:39.045Z,66.50
2019-02-25T15:56:08.087Z,66.60
2019-02-25T15:58:36.189Z,67.00
2019-02-25T16:01:04.151Z,67.70
2019-02-25T16:03:32.206Z,67.60
2019-02-25T16:06:02.103Z,68.40
2019-02-25T16:08:31.119Z,68.60
2019-02-25T16:11:00.232Z,69.40
2019-02-25T16:13:28.513Z,69.50
2019-02-25T16:15:56.164Z,70.20
2019-02-25T16:18:25.334Z,71.70
2019-02-25T16:20:53.327Z,71.30
2019-02-25T16:23:21.408Z,70.90
2019-02-25T16:25:50.989Z,71.70
2019-02-25T16:28:18.508Z,72.00
2019-02-25T16:30:46.924Z,74.60
2019-02-25T16:33:15.674Z,73.90
2019-02-25T16:35:45.507Z,74.10
2019-02-25T16:38:12.756Z,73.40
2019-02-25T16:40:40.435Z,75.90
2019-02-25T16:43:12.052Z,75.10
2019-02-25T16:45:39.520Z,76.60
2019-02-25T16:48:07.453Z,75.60
2019-02-25T16:50:35.356Z,76.00
2019-02-25T16:53:07.848Z,75.90
2019-02-25T16:55:34.292Z,79.60
2019-02-25T16:58:03.719Z,80.50
2019-02-25T17:00:32.334Z,83.30
2019-02-25T17:03:03.589Z,85.20
2019-02-25T17:05:30.747Z,86.70
2019-02-25T17:07:58.470Z,88.40
2019-02-25T17:10:28.521Z,90.80
2019-02-25T17:12:55.733Z,92.10
2019-02-25T17:15:26.285Z,95.30
2019-02-25T17:17:52.926Z,99.90
2019-02-25T17:20:20.552Z,99.90
2019-02-25T17:22:48.423Z,99.90
2019-02-25T17:25:16.237Z,99.90
2019-02-25T17:27:45.653Z,99.90
2019-02-25T17:30:17.431Z,99.90
2019-02-25T17:32:48.267Z,99.90
2019-02-25T17:35:16.299Z,99.90
2019-02-25T17:37:43.917Z,99.90
2019-02-25T17:40:13.159Z,99.90
2019-02-25T17:42:40.875Z,99.90
2019-02-25T17:45:11.262Z,99.90
2019-02-25T17:47:39.668Z,99.90
2019-02-25T17:50:09.299Z,99.90
2019-02-25T17:52:38.707Z,99.90
2019-02-25T17:55:10.141Z,99.90
2019-02-25T17:57:38.299Z,99.90
2019-02-25T18:00:11.226Z,99.90
2019-02-25T18:02:40.191Z,99.90
2019-02-25T18:05:09.420Z,99.90
2019-02-25T18:07:37.772Z,99.90
2019-02-25T18:10:08.146Z,99.90
2019-02-25T18:12:39.193Z,99.90
2019-02-25T18:15:09.452Z,99.90
2019-02-25T18:17:38.920Z,99.90
2019-02-25T18:20:08.635Z,99.90
2019-02-25T18:22:36.767Z,99.90
2019-02-25T18:25:05.013Z,99.90
2019-02-25T18:27:34.829Z,99.90
2019-02-25T18:30:02.302Z,99.90
2019-02-25T18:32:31.074Z,99.90
2019-02-25T18:35:00.526Z,99.90
2019-02-25T18:37:28.545Z,99.90
2019-02-25T18:39:56.610Z,99.90
2019-02-25T18:42:24.397Z,99.90
2019-02-25T18:44:53.525Z,99.90
2019-02-25T18:47:25.603Z,99.90
2019-02-25T18:49:54.356Z,99.90
2019-02-25T18:52:23.297Z,99.90
2019-02-25T18:54:50.965Z,99.90
2019-02-25T18:57:19.251Z,99.90
2019-02-25T18:59:48.260Z,99.90
2019-02-25T19:02:16.649Z,99.90
2019-02-25T19:04:45.652Z,99.90
2019-02-25T19:07:13.405Z,99.90
2019-02-25T19:09:43.080Z,99.90
2019-02-25T19:12:10.559Z,99.90
2019-02-25T19:14:38.188Z,99.90
2019-02-25T19:17:06.553Z,99.90
2019-02-25T19:19:36.725Z,99.90
2019-02-25T19:22:05.956Z,99.90
2019-02-25T19:24:36.238Z,99.90
2019-02-25T19:27:04.361Z,99.90
2019-02-25T19:29:32.500Z,99.90
2019-02-25T19:32:01.178Z,99.90
2019-02-25T19:34:29.030Z,99.90
2019-02-25T19:37:00.285Z,99.90
2019-02-25T19:39:26.150Z,99.90
2019-02-25T19:41:54.469Z,99.90
2019-02-25T19:44:23.256Z,99.90
2019-02-25T19:46:53.149Z,99.90
2019-02-25T19:49:20.729Z,99.90
2019-02-25T19:51:50.208Z,99.90
2019-02-25T19:54:18.634Z,99.90
2019-02-25T19:56:48.224Z,99.90
2019-02-25T19:59:15.895Z,99.90
2019-02-25T20:01:43.557Z,99.90
2019-02-25T20:04:12.166Z,99.90
2019-02-25T20:06:44.486Z,99.90
2019-02-25T20:09:12.064Z,99.90
2019-02-25T20:11:40.030Z,99.90
2019-02-25T20:14:07.723Z,99.90
2019-02-25T20:16:35.350Z,99.90
2019-02-25T20:19:04.576Z,99.90
2019-02-25T20:21:32.501Z,99.90
2019-02-25T20:24:00.150Z,99.90
2019-02-25T20:26:28.128Z,99.90
2019-02-25T20:28:55.866Z,99.90
2019-02-25T20:31:23.524Z,99.90
2019-02-25T20:33:52.891Z,99.90
2019-02-25T20:36:22.064Z,99.90
2019-02-25T20:38:50.985Z,99.90
2019-02-25T20:41:21.899Z,99.90
2019-02-25T20:43:53.212Z,99.90
2019-02-25T20:46:19.987Z,99.90
2019-02-25T20:48:48.503Z,99.90
2019-02-25T20:51:16.583Z,99.90
2019-02-25T20:53:45.968Z,99.90
2019-02-25T20:56:13.699Z,99.90
2019-02-25T20:58:43.035Z,99.90
2019-02-25T21:01:12.112Z,99.90
2019-02-25T21:03:43.852Z,99.90
2019-02-25T21:06:12.168Z,99.90
2019-02-25T21:08:39.981Z,99.90
2019-02-25T21:11:11.006Z,99.90
2019-02-25T21:13:40.178Z,99.90
2019-02-25T21:16:10.391Z,99.90
2019-02-25T21:18:37.439Z,99.90
2019-02-25T21:21:07.192Z,99.90
2019-02-25T21:23:34.664Z,99.90
2019-02-25T21:26:04.337Z,99.90
2019-02-25T21:28:33.496Z,99.90
2019-02-25T21:31:01.246Z,99.90
2019-02-25T21:33:30.364Z,99.90
2019-02-25T21:35:58.095Z,99.90
2019-02-25T21:38:26.713Z,99.90
2019-02-25T21:40:55.316Z,99.90
2019-02-25T21:43:25.776Z,99.90
2019-02-25T21:45:54.278Z,99.90
2019-02-25T21:48:25.127Z,99.90
2019-02-25T21:50:51.343Z,99.90
2019-02-25T21:53:19.042Z,99.90
2019-02-25T21:55:46.711Z,99.90
2019-02-25T21:58:16.250Z,99.90
2019-02-25T22:00:43.815Z,99.90
2019-02-25T22:03:13.222Z,99.90
2019-02-25T22:05:41.036Z,99.90
2019-02-25T22:08:08.703Z,99.90
2019-02-25T22:10:38.819Z,99.90
2019-02-25T22:13:08.748Z,99.90
2019-02-25T22:15:36.216Z,99.90
2019-02-25T22:18:06.355Z,99.90
2019-02-25T22:20:37.674Z,99.90
2019-02-25T22:23:05.674Z,99.90
2019-02-25T22:25:33.245Z,99.90
2019-02-25T22:28:01.698Z,99.90
2019-02-25T22:30:30.403Z,99.90
2019-02-25T22:33:00.068Z,99.90
2019-02-25T22:35:27.527Z,99.90
2019-02-25T22:37:56.132Z,99.90
2019-02-25T22:40:24.703Z,99.90
2019-02-25T22:42:54.456Z,99.90
2019-02-25T22:45:21.870Z,99.90
2019-02-25T22:47:49.510Z,99.90
2019-02-25T22:50:17.219Z,99.90
2019-02-25T22:52:44.843Z,99.90
2019-02-25T22:55:14.894Z,99.90
2019-02-25T22:57:43.478Z,99.90
2019-02-25T23:00:49.753Z,99.90
2019-02-25T23:03:20.293Z,99.90
2019-02-25T23:05:48.702Z,99.90
2019-02-25T23:08:18.211Z,99.90
2019-02-25T23:10:46.897Z,99.90
2019-02-25T23:13:17.818Z,99.90
2019-02-25T23:15:46.673Z,99.90
2019-02-25T23:18:16.610Z,99.90
2019-02-25T23:20:44.288Z,99.90
2019-02-25T23:23:12.021Z,99.90
2019-02-25T23:25:39.661Z,99.90
2019-02-25T23:28:07.360Z,99.90
2019-02-25T23:30:35.040Z,99.90
2019-02-25T23:33:04.456Z,99.90
2019-02-25T23:35:32.136Z,99.90
2019-02-25T23:38:00.967Z,99.90
2019-02-25T23:40:31.291Z,99.90
2019-02-25T23:42:58.109Z,99.90
2019-02-25T23:45:25.830Z,99.90
2019-02-25T23:47:57.604Z,99.90
2019-02-25T23:50:25.090Z,99.90
2019-02-25T23:52:52.425Z,99.90
2019-02-25T23:55:23.883Z,99.90
2019-02-25T23:57:49.615Z,99.90
